createdAt,value
2017-04-22T00:00:00.057Z,10.18
2017-04-22T00:01:00.048Z,10.22
2017-04-22T00:02:00.035Z,10.25
2017-04-22T00:03:00.029Z,10.18
2017-04-22T00:03:59.718Z,10.23
2017-04-22T00:05:00.015Z,10.2
2017-04-22T00:06:00.006Z,10.17
2017-04-22T00:07:00.003Z,10.2
2017-04-22T00:07:59.684Z,10.17
2017-04-22T00:08:59.681Z,10.2
2017-04-22T00:09:59.667Z,10.22
2017-04-22T00:10:59.966Z,10.18
2017-04-22T00:11:59.956Z,10.22
2017-04-22T00:12:59.947Z,10.12
2017-04-22T00:13:59.940Z,10.04
2017-04-22T00:14:59.928Z,10.11
2017-04-22T00:15:59.926Z,10.07
2017-04-22T00:16:59.933Z,10.08
2017-04-22T00:17:59.904Z,10.01
2017-04-22T00:18:59.897Z,9.91
2017-04-22T00:19:59.895Z,9.86
2017-04-22T00:20:59.881Z,9.81
2017-04-22T00:21:59.962Z,9.78
2017-04-22T00:22:59.559Z,9.74
2017-04-22T00:23:59.860Z,9.61
2017-04-22T00:24:59.847Z,9.6
2017-04-22T00:25:59.843Z,9.58
2017-04-22T00:26:59.826Z,9.54
2017-04-22T00:27:59.821Z,9.47
2017-04-22T00:28:59.815Z,9.35
2017-04-22T00:29:59.716Z,9.43
2017-04-22T00:30:59.797Z,9.31
2017-04-22T00:31:59.783Z,9.4
2017-04-22T00:32:59.781Z,9.32
2017-04-22T00:33:59.788Z,9.21
2017-04-22T00:34:59.762Z,9.21
2017-04-22T00:35:59.750Z,9.15
2017-04-22T00:36:59.740Z,9.18
2017-04-22T00:37:59.737Z,9.2
2017-04-22T00:38:59.724Z,9.11
2017-04-22T00:39:59.715Z,9.18
2017-04-22T00:40:59.708Z,9.11
2017-04-22T00:41:59.699Z,9.21
2017-04-22T00:42:59.690Z,9.21
2017-04-22T00:43:59.682Z,9.17
2017-04-22T00:44:59.674Z,9.1
2017-04-22T00:45:59.665Z,9.08
2017-04-22T00:46:59.653Z,9.1
2017-04-22T00:47:59.644Z,8.99
2017-04-22T00:48:59.637Z,8.98
2017-04-22T00:49:59.629Z,8.95
2017-04-22T00:50:59.618Z,8.86
2017-04-22T00:51:59.608Z,8.84
2017-04-22T00:52:59.600Z,8.77
2017-04-22T00:53:59.591Z,8.71
2017-04-22T00:54:59.583Z,8.79
2017-04-22T00:55:59.580Z,8.76
2017-04-22T00:56:59.566Z,8.65
2017-04-22T00:57:59.559Z,8.55
2017-04-22T00:58:59.544Z,8.55
2017-04-22T00:59:59.537Z,8.45
2017-04-22T01:00:59.527Z,8.43
2017-04-22T01:01:59.522Z,8.43
2017-04-22T01:02:59.510Z,8.38
2017-04-22T01:03:59.500Z,8.36
2017-04-22T01:04:59.493Z,8.33
2017-04-22T01:05:59.479Z,8.28
2017-04-22T01:06:59.470Z,8.2
2017-04-22T01:07:59.464Z,8.18
2017-04-22T01:08:59.454Z,8.01
2017-04-22T01:09:59.444Z,8.02
2017-04-22T01:10:59.433Z,8
2017-04-22T01:11:59.429Z,7.97
2017-04-22T01:12:59.417Z,7.93
2017-04-22T01:13:59.405Z,7.86
2017-04-22T01:14:59.404Z,7.77
2017-04-22T01:15:59.387Z,7.82
2017-04-22T01:16:59.400Z,7.74
2017-04-22T01:17:59.367Z,7.74
2017-04-22T01:18:59.357Z,7.63
2017-04-22T01:19:59.497Z,7.58
2017-04-22T01:20:59.340Z,7.6
2017-04-22T01:21:59.330Z,7.53
2017-04-22T01:22:59.319Z,7.49
2017-04-22T01:23:59.310Z,7.57
2017-04-22T01:24:59.304Z,7.43
2017-04-22T01:25:59.289Z,7.42
2017-04-22T01:26:58.980Z,7.4
2017-04-22T01:27:59.272Z,7.31
2017-04-22T01:28:59.260Z,7.27
2017-04-22T01:29:59.254Z,7.25
2017-04-22T01:30:59.543Z,7.25
2017-04-22T01:31:59.228Z,7.21
2017-04-22T01:32:58.918Z,7.17
2017-04-22T01:33:58.604Z,7.03
2017-04-22T01:34:58.896Z,7.06
2017-04-22T01:35:59.493Z,7.1
2017-04-22T01:36:59.343Z,7.05
2017-04-22T01:37:59.169Z,6.97
2017-04-22T01:38:59.163Z,6.92
2017-04-22T01:39:58.847Z,6.95
2017-04-22T01:40:59.387Z,7.05
2017-04-22T01:41:59.128Z,7.02
2017-04-22T01:42:59.120Z,6.92
2017-04-22T01:43:59.110Z,6.97
2017-04-22T01:44:59.097Z,7.03
2017-04-22T01:45:59.033Z,6.95
2017-04-22T01:46:59.079Z,7.02
2017-04-22T01:47:59.070Z,6.92
2017-04-22T01:48:59.056Z,6.87
2017-04-22T01:49:59.046Z,6.91
2017-04-22T01:50:59.337Z,6.88
2017-04-22T01:51:59.023Z,6.84
2017-04-22T01:52:58.713Z,6.79
2017-04-22T01:53:59.093Z,6.79
2017-04-22T01:54:58.993Z,6.7
2017-04-22T01:55:59.233Z,6.67
2017-04-22T01:56:58.971Z,6.67
2017-04-22T01:57:58.661Z,6.56
2017-04-22T01:58:58.951Z,6.51
2017-04-22T01:59:58.940Z,6.55
2017-04-22T02:00:59.228Z,6.46
2017-04-22T02:01:58.933Z,6.59
2017-04-22T02:02:58.909Z,6.52
2017-04-22T02:03:58.897Z,6.54
2017-04-22T02:04:58.889Z,6.58
2017-04-22T02:05:59.126Z,6.59
2017-04-22T02:06:58.865Z,6.62
2017-04-22T02:07:58.856Z,6.59
2017-04-22T02:08:58.845Z,6.62
2017-04-22T02:09:58.836Z,6.69
2017-04-22T02:10:59.121Z,6.62
2017-04-22T02:11:58.814Z,6.64
2017-04-22T02:12:58.830Z,6.62
2017-04-22T02:13:58.797Z,6.61
2017-04-22T02:14:58.780Z,6.64
2017-04-22T02:15:59.018Z,6.69
2017-04-22T02:16:58.759Z,6.69
2017-04-22T02:17:58.749Z,6.66
2017-04-22T02:18:58.735Z,6.66
2017-04-22T02:19:58.732Z,6.66
2017-04-22T02:20:59.016Z,6.64
2017-04-22T02:21:58.412Z,6.54
2017-04-22T02:22:58.694Z,6.58
2017-04-22T02:23:58.378Z,6.46
2017-04-22T02:24:58.671Z,6.44
2017-04-22T02:25:58.656Z,6.37
2017-04-22T02:26:58.649Z,6.36
2017-04-22T02:27:58.745Z,6.3
2017-04-22T02:28:58.324Z,6.25
2017-04-22T02:29:58.616Z,6.21
2017-04-22T02:30:58.862Z,6.11
2017-04-22T02:31:58.602Z,6.06
2017-04-22T02:32:58.592Z,6.11
2017-04-22T02:33:58.573Z,6.06
2017-04-22T02:34:58.564Z,6
2017-04-22T02:35:58.501Z,5.93
2017-04-22T02:36:58.553Z,5.97
2017-04-22T02:37:58.530Z,5.91
2017-04-22T02:38:58.520Z,5.93
2017-04-22T02:39:58.507Z,5.86
2017-04-22T02:40:58.469Z,5.86
2017-04-22T02:41:58.486Z,5.86
2017-04-22T02:42:58.475Z,5.89
2017-04-22T02:43:58.465Z,5.79
2017-04-22T02:44:58.454Z,5.85
2017-04-22T02:45:58.690Z,5.83
2017-04-22T02:46:58.427Z,5.68
2017-04-22T02:47:58.418Z,5.78
2017-04-22T02:48:58.408Z,5.67
2017-04-22T02:49:58.406Z,5.71
2017-04-22T02:50:58.688Z,5.49
2017-04-22T02:51:58.070Z,5.57
2017-04-22T02:52:58.369Z,5.58
2017-04-22T02:53:58.352Z,5.54
2017-04-22T02:54:58.339Z,5.53
2017-04-22T02:55:58.032Z,5.56
2017-04-22T02:56:58.022Z,5.51
2017-04-22T02:57:58.303Z,5.53
2017-04-22T02:58:58.294Z,5.51
2017-04-22T02:59:58.282Z,5.54
2017-04-22T03:00:58.458Z,5.45
2017-04-22T03:01:58.264Z,5.46
2017-04-22T03:02:58.251Z,5.49
2017-04-22T03:03:58.238Z,5.43
2017-04-22T03:04:58.226Z,5.43
2017-04-22T03:05:58.226Z,5.4
2017-04-22T03:06:58.204Z,5.38
2017-04-22T03:07:58.193Z,5.36
2017-04-22T03:08:58.216Z,5.27
2017-04-22T03:09:58.168Z,5.33
2017-04-22T03:10:58.160Z,5.25
2017-04-22T03:11:58.141Z,5.21
2017-04-22T03:12:58.144Z,5.27
2017-04-22T03:13:58.124Z,5.3
2017-04-22T03:14:57.506Z,5.21
2017-04-22T03:15:58.102Z,5.21
2017-04-22T03:16:58.045Z,5.15
2017-04-22T03:17:57.772Z,5.13
2017-04-22T03:18:58.077Z,5.18
2017-04-22T03:19:57.749Z,5.09
2017-04-22T03:20:57.735Z,5.09
2017-04-22T03:21:58.045Z,5.12
2017-04-22T03:22:57.715Z,5.12
2017-04-22T03:23:57.702Z,5.07
2017-04-22T03:24:57.993Z,5.02
2017-04-22T03:25:58.026Z,5.1
2017-04-22T03:26:58.275Z,5.04
2017-04-22T03:27:57.960Z,5.06
2017-04-22T03:28:57.946Z,4.96
2017-04-22T03:29:57.938Z,4.97
2017-04-22T03:30:57.943Z,4.97
2017-04-22T03:31:58.161Z,4.91
2017-04-22T03:32:57.902Z,4.92
2017-04-22T03:33:57.891Z,4.97
2017-04-22T03:34:57.876Z,4.97
2017-04-22T03:35:57.866Z,4.91
2017-04-22T03:36:57.799Z,4.94
2017-04-22T03:37:57.843Z,4.96
2017-04-22T03:38:57.829Z,4.96
2017-04-22T03:39:57.816Z,4.96
2017-04-22T03:40:57.805Z,4.94
2017-04-22T03:41:58.052Z,4.94
2017-04-22T03:42:57.782Z,4.99
2017-04-22T03:43:57.770Z,4.89
2017-04-22T03:44:57.757Z,4.91
2017-04-22T03:45:57.745Z,4.99
2017-04-22T03:46:58.092Z,4.99
2017-04-22T03:47:57.726Z,5
2017-04-22T03:48:57.711Z,5.03
2017-04-22T03:49:57.696Z,4.97
2017-04-22T03:50:57.692Z,5.02
2017-04-22T03:51:57.999Z,5
2017-04-22T03:52:57.663Z,4.97
2017-04-22T03:53:57.649Z,5
2017-04-22T03:54:57.639Z,4.94
2017-04-22T03:55:57.628Z,4.99
2017-04-22T03:56:57.864Z,4.96
2017-04-22T03:57:57.600Z,4.94
2017-04-22T03:58:57.589Z,4.97
2017-04-22T03:59:57.580Z,4.97
2017-04-22T04:00:57.566Z,4.91
2017-04-22T04:01:57.858Z,4.91
2017-04-22T04:02:57.545Z,4.99
2017-04-22T04:03:57.529Z,5.02
2017-04-22T04:04:57.518Z,5.04
2017-04-22T04:05:57.507Z,5.06
2017-04-22T04:06:57.948Z,5.1
2017-04-22T04:07:57.486Z,5
2017-04-22T04:08:57.472Z,5.06
2017-04-22T04:09:57.459Z,5.07
2017-04-22T04:10:57.446Z,5.04
2017-04-22T04:11:57.432Z,5.04
2017-04-22T04:12:57.426Z,5.06
2017-04-22T04:13:57.413Z,5.09
2017-04-22T04:14:57.402Z,5.06
2017-04-22T04:15:57.461Z,5.12
2017-04-22T04:16:57.679Z,5.06
2017-04-22T04:17:57.366Z,5.17
2017-04-22T04:18:57.353Z,5.15
2017-04-22T04:19:57.733Z,5.18
2017-04-22T04:20:57.332Z,5.22
2017-04-22T04:21:57.568Z,5.28
2017-04-22T04:22:57.307Z,5.3
2017-04-22T04:23:56.991Z,5.33
2017-04-22T04:24:57.285Z,5.31
2017-04-22T04:25:57.273Z,5.42
2017-04-22T04:26:57.515Z,5.48
2017-04-22T04:27:57.248Z,5.45
2017-04-22T04:28:57.240Z,5.6
2017-04-22T04:29:57.225Z,5.58
2017-04-22T04:30:57.213Z,5.56
2017-04-22T04:31:57.504Z,5.57
2017-04-22T04:32:57.193Z,5.61
2017-04-22T04:33:57.181Z,5.72
2017-04-22T04:34:57.172Z,5.78
2017-04-22T04:35:57.159Z,5.9
2017-04-22T04:36:57.448Z,5.89
2017-04-22T04:37:57.133Z,5.9
2017-04-22T04:38:57.126Z,5.93
2017-04-22T04:39:57.116Z,6.06
2017-04-22T04:40:56.798Z,6.11
2017-04-22T04:41:57.091Z,6.11
2017-04-22T04:42:57.081Z,6.19
2017-04-22T04:43:57.067Z,6.28
2017-04-22T04:44:57.061Z,6.36
2017-04-22T04:45:57.048Z,6.34
2017-04-22T04:46:57.037Z,6.52
2017-04-22T04:47:57.024Z,6.56
2017-04-22T04:48:57.014Z,6.67
2017-04-22T04:49:57.005Z,6.67
2017-04-22T04:50:56.998Z,6.71
2017-04-22T04:51:56.985Z,6.84
2017-04-22T04:52:56.972Z,6.85
2017-04-22T04:53:56.963Z,6.99
2017-04-22T04:54:56.955Z,6.98
2017-04-22T04:55:56.946Z,6.98
2017-04-22T04:56:56.934Z,7.06
2017-04-22T04:57:56.615Z,7.06
2017-04-22T04:58:56.908Z,7.13
2017-04-22T04:59:56.897Z,7.2
2017-04-22T05:00:56.888Z,7.34
2017-04-22T05:01:56.876Z,7.39
2017-04-22T05:02:56.867Z,7.43
2017-04-22T05:03:56.555Z,7.39
2017-04-22T05:04:56.872Z,7.45
2017-04-22T05:05:56.836Z,7.58
2017-04-22T05:06:56.826Z,7.53
2017-04-22T05:07:56.818Z,7.57
2017-04-22T05:08:56.814Z,7.67
2017-04-22T05:09:56.797Z,7.83
2017-04-22T05:10:56.816Z,7.86
2017-04-22T05:11:56.780Z,7.93
2017-04-22T05:12:56.771Z,8.01
2017-04-22T05:13:56.758Z,8.16
2017-04-22T05:14:56.749Z,8.12
2017-04-22T05:15:56.740Z,8.28
2017-04-22T05:16:56.730Z,8.28
2017-04-22T05:17:56.727Z,8.28
2017-04-22T05:18:56.720Z,8.34
2017-04-22T05:19:56.704Z,8.45
2017-04-22T05:20:56.693Z,8.36
2017-04-22T05:21:56.685Z,8.45
2017-04-22T05:22:56.677Z,8.37
2017-04-22T05:23:56.665Z,8.48
2017-04-22T05:24:56.354Z,8.53
2017-04-22T05:25:56.654Z,8.61
2017-04-22T05:26:56.641Z,8.73
2017-04-22T05:27:56.629Z,8.66
2017-04-22T05:28:56.627Z,8.71
2017-04-22T05:29:56.614Z,8.8
2017-04-22T05:30:56.607Z,8.81
2017-04-22T05:31:56.591Z,8.71
2017-04-22T05:32:56.583Z,8.65
2017-04-22T05:33:56.573Z,8.73
2017-04-22T05:34:56.263Z,8.76
2017-04-22T05:35:56.556Z,8.86
2017-04-22T05:36:56.547Z,8.84
2017-04-22T05:37:56.238Z,8.98
2017-04-22T05:38:56.529Z,9.04
2017-04-22T05:39:56.383Z,9.01
2017-04-22T05:40:56.513Z,9.02
2017-04-22T05:41:56.502Z,9.08
2017-04-22T05:42:56.501Z,9.14
2017-04-22T05:43:56.486Z,9.2
2017-04-22T05:44:56.178Z,9.2
2017-04-22T05:45:56.467Z,9.15
2017-04-22T05:46:56.459Z,9.21
2017-04-22T05:47:56.452Z,9.23
2017-04-22T05:48:56.443Z,9.23
2017-04-22T05:49:56.434Z,9.35
2017-04-22T05:50:56.425Z,9.4
2017-04-22T05:51:56.416Z,9.38
2017-04-22T05:52:56.410Z,9.43
2017-04-22T05:53:56.402Z,9.42
2017-04-22T05:54:56.391Z,9.38
2017-04-22T05:55:56.380Z,9.39
2017-04-22T05:56:56.374Z,9.39
2017-04-22T05:57:56.366Z,9.47
2017-04-22T05:58:56.355Z,9.46
2017-04-22T05:59:56.349Z,9.39
2017-04-22T06:00:56.339Z,9.46
2017-04-22T06:01:56.333Z,9.54
2017-04-22T06:02:56.326Z,9.68
2017-04-22T06:03:56.314Z,9.81
2017-04-22T06:04:56.305Z,10.14
2017-04-22T06:05:56.299Z,10.27
2017-04-22T06:06:56.292Z,10.59
2017-04-22T06:07:56.536Z,10.64
2017-04-22T06:08:56.283Z,10.73
2017-04-22T06:09:56.270Z,10.81
2017-04-22T06:10:56.265Z,10.82
2017-04-22T06:11:56.271Z,10.79
2017-04-22T06:12:56.549Z,10.85
2017-04-22T06:13:56.242Z,10.89
2017-04-22T06:14:56.237Z,11.14
2017-04-22T06:15:56.226Z,11.32
2017-04-22T06:16:56.228Z,11.36
2017-04-22T06:17:56.515Z,11.6
2017-04-22T06:18:55.906Z,11.85
2017-04-22T06:19:56.205Z,12.04
2017-04-22T06:20:56.201Z,12.34
2017-04-22T06:21:55.894Z,12.47
2017-04-22T06:22:56.550Z,12.74
2017-04-22T06:23:56.183Z,13.04
2017-04-22T06:24:56.183Z,13.36
2017-04-22T06:25:55.872Z,13.73
2017-04-22T06:26:56.172Z,14.09
2017-04-22T06:27:56.465Z,14.21
2017-04-22T06:28:56.169Z,14.18
2017-04-22T06:29:56.162Z,14.17
2017-04-22T06:30:56.175Z,14.17
2017-04-22T06:31:55.850Z,14.22
2017-04-22T06:32:56.409Z,14.46
2017-04-22T06:33:56.146Z,14.61
2017-04-22T06:34:56.146Z,14.94
2017-04-22T06:35:56.140Z,15.09
2017-04-22T06:36:56.140Z,15.32
2017-04-22T06:37:56.487Z,15.41
2017-04-22T06:38:56.136Z,15.53
2017-04-22T06:39:56.135Z,15.82
2017-04-22T06:40:56.131Z,15.92
2017-04-22T06:41:56.131Z,16.07
2017-04-22T06:42:56.388Z,16.25
2017-04-22T06:43:56.131Z,16.41
2017-04-22T06:44:56.132Z,16.57
2017-04-22T06:45:56.131Z,16.73
2017-04-22T06:46:56.128Z,16.86
2017-04-22T06:47:56.479Z,17.08
2017-04-22T06:48:56.136Z,17.25
2017-04-22T06:49:56.129Z,17.19
2017-04-22T06:50:56.128Z,17.12
2017-04-22T06:51:55.823Z,16.98
2017-04-22T06:52:56.431Z,17.12
2017-04-22T06:53:56.131Z,17.23
2017-04-22T06:54:56.155Z,17.25
2017-04-22T06:55:56.131Z,17.37
2017-04-22T06:56:55.827Z,17.23
2017-04-22T06:57:56.126Z,17.18
2017-04-22T06:58:56.134Z,17
2017-04-22T06:59:56.129Z,16.91
2017-04-22T07:00:56.127Z,16.93
2017-04-22T07:01:56.125Z,16.85
2017-04-22T07:02:56.429Z,16.83
2017-04-22T07:03:56.127Z,16.89
2017-04-22T07:04:56.123Z,16.7
2017-04-22T07:05:55.821Z,16.71
2017-04-22T07:06:56.122Z,16.68
2017-04-22T07:07:56.373Z,16.71
2017-04-22T07:08:56.125Z,16.85
2017-04-22T07:09:56.124Z,17
2017-04-22T07:10:56.125Z,17.14
2017-04-22T07:11:56.122Z,17.04
2017-04-22T07:12:56.373Z,16.98
2017-04-22T07:13:56.218Z,17.18
2017-04-22T07:14:56.132Z,17.34
2017-04-22T07:15:56.126Z,17.21
2017-04-22T07:16:56.122Z,17.21
2017-04-22T07:17:56.370Z,16.96
2017-04-22T07:18:55.818Z,16.85
2017-04-22T07:19:56.122Z,16.71
2017-04-22T07:20:56.126Z,16.5
2017-04-22T07:21:56.137Z,16.39
2017-04-22T07:22:56.474Z,16.25
2017-04-22T07:23:56.122Z,16.08
2017-04-22T07:24:56.117Z,16.14
2017-04-22T07:25:56.114Z,15.97
2017-04-22T07:26:56.240Z,16
2017-04-22T07:27:58.511Z,15.74
2017-04-22T07:28:56.111Z,15.51
2017-04-22T07:29:56.107Z,15.32
2017-04-22T07:30:56.112Z,15.19
2017-04-22T07:31:56.105Z,15.06
2017-04-22T07:32:56.404Z,14.92
2017-04-22T07:33:56.104Z,14.83
2017-04-22T07:34:56.101Z,14.77
2017-04-22T07:35:56.093Z,14.72
2017-04-22T07:36:56.092Z,14.77
2017-04-22T07:37:56.342Z,14.58
2017-04-22T07:38:56.088Z,14.4
2017-04-22T07:39:56.174Z,14.24
2017-04-22T07:40:56.079Z,14.22
2017-04-22T07:41:56.074Z,14.09
2017-04-22T07:42:56.375Z,13.88
2017-04-22T07:43:56.080Z,13.77
2017-04-22T07:44:56.065Z,13.77
2017-04-22T07:45:56.061Z,13.66
2017-04-22T07:46:56.056Z,13.67
2017-04-22T07:47:56.351Z,13.75
2017-04-22T07:48:56.050Z,14.03
2017-04-22T07:49:56.045Z,14.22
2017-04-22T07:50:56.042Z,14.54
2017-04-22T07:51:56.038Z,14.86
2017-04-22T07:52:56.283Z,15.28
2017-04-22T07:53:56.029Z,15.51
2017-04-22T07:54:55.727Z,15.97
2017-04-22T07:55:56.030Z,16.2
2017-04-22T07:56:56.025Z,16.24
2017-04-22T07:57:56.323Z,16.38
2017-04-22T07:58:56.019Z,16.3
2017-04-22T07:59:56.024Z,16.39
2017-04-22T08:00:56.015Z,16.25
2017-04-22T08:01:56.015Z,16.31
2017-04-22T08:02:56.266Z,16.17
2017-04-22T08:03:56.014Z,16.17
2017-04-22T08:04:56.010Z,16.09
2017-04-22T08:05:56.007Z,16.11
2017-04-22T08:06:56.006Z,16.02
2017-04-22T08:07:56.308Z,15.96
2017-04-22T08:08:56.003Z,16
2017-04-22T08:09:56.000Z,15.87
2017-04-22T08:10:55.999Z,15.87
2017-04-22T08:11:55.993Z,15.89
2017-04-22T08:12:56.304Z,15.82
2017-04-22T08:13:55.994Z,15.76
2017-04-22T08:14:55.994Z,15.6
2017-04-22T08:15:55.987Z,15.67
2017-04-22T08:16:55.682Z,15.59
2017-04-22T08:17:56.287Z,15.62
2017-04-22T08:18:55.982Z,15.5
2017-04-22T08:19:55.977Z,15.56
2017-04-22T08:20:55.975Z,15.44
2017-04-22T08:21:55.976Z,15.34
2017-04-22T08:22:56.320Z,15.19
2017-04-22T08:23:55.973Z,14.94
2017-04-22T08:24:55.965Z,14.92
2017-04-22T08:25:55.966Z,14.73
2017-04-22T08:26:55.957Z,14.6
2017-04-22T08:27:56.207Z,14.52
2017-04-22T08:28:55.952Z,14.42
2017-04-22T08:29:55.952Z,14.36
2017-04-22T08:30:55.640Z,14.25
2017-04-22T08:31:55.942Z,14.18
2017-04-22T08:32:56.239Z,14.18
2017-04-22T08:33:55.934Z,14.04
2017-04-22T08:34:55.929Z,14.07
2017-04-22T08:35:55.925Z,14.02
2017-04-22T08:36:55.921Z,14.04
2017-04-22T08:37:56.170Z,14.02
2017-04-22T08:38:55.915Z,14.04
2017-04-22T08:39:55.910Z,14.1
2017-04-22T08:40:55.912Z,14.02
2017-04-22T08:41:55.923Z,14.07
2017-04-22T08:42:56.257Z,13.99
2017-04-22T08:43:55.893Z,13.85
2017-04-22T08:44:55.886Z,13.89
2017-04-22T08:45:55.889Z,13.92
2017-04-22T08:46:56.946Z,13.88
2017-04-22T08:47:56.129Z,13.92
2017-04-22T08:48:55.878Z,14.04
2017-04-22T08:49:56.002Z,14.15
2017-04-22T08:51:01.250Z,14.06
2017-04-22T08:51:55.856Z,14.07
2017-04-22T08:52:56.104Z,14.15
2017-04-22T08:53:55.850Z,14.25
2017-04-22T08:54:55.844Z,14.32
2017-04-22T08:55:55.534Z,14.24
2017-04-22T08:56:55.837Z,14.35
2017-04-22T08:57:56.170Z,14.43
2017-04-22T08:58:55.828Z,14.39
2017-04-22T08:59:55.824Z,14.37
2017-04-22T09:00:55.818Z,14.39
2017-04-22T09:01:55.813Z,14.52
2017-04-22T09:02:56.192Z,14.5
2017-04-22T09:03:55.803Z,14.52
2017-04-22T09:04:55.800Z,14.54
2017-04-22T09:05:55.801Z,14.5
2017-04-22T09:06:55.792Z,14.4
2017-04-22T09:07:56.070Z,14.54
2017-04-22T09:08:55.786Z,14.5
2017-04-22T09:09:55.786Z,14.45
2017-04-22T09:10:55.773Z,14.4
2017-04-22T09:11:55.770Z,14.54
2017-04-22T09:12:56.020Z,14.54
2017-04-22T09:13:55.763Z,14.62
2017-04-22T09:14:55.755Z,14.55
2017-04-22T09:15:55.750Z,14.6
2017-04-22T09:16:55.745Z,14.51
2017-04-22T09:17:56.042Z,14.4
2017-04-22T09:18:55.740Z,14.27
2017-04-22T09:19:55.737Z,14.2
2017-04-22T09:20:55.426Z,14.06
2017-04-22T09:21:55.725Z,13.92
2017-04-22T09:22:56.023Z,13.73
2017-04-22T09:23:55.716Z,13.62
2017-04-22T09:24:55.713Z,13.59
2017-04-22T09:25:55.403Z,13.57
2017-04-22T09:26:55.706Z,13.57
2017-04-22T09:27:55.948Z,13.6
2017-04-22T09:28:55.695Z,13.62
2017-04-22T09:29:55.688Z,13.7
2017-04-22T09:30:55.693Z,13.77
2017-04-22T09:31:55.680Z,13.7
2017-04-22T09:32:56.022Z,13.6
2017-04-22T09:33:55.668Z,13.66
2017-04-22T09:34:55.669Z,13.59
2017-04-22T09:35:55.659Z,13.49
2017-04-22T09:36:55.655Z,13.39
2017-04-22T09:37:55.898Z,13.39
2017-04-22T09:38:55.647Z,13.26
2017-04-22T09:39:55.638Z,13.22
2017-04-22T09:40:55.633Z,13.22
2017-04-22T09:41:55.630Z,13.25
2017-04-22T09:42:55.878Z,13.32
2017-04-22T09:43:55.625Z,13.42
2017-04-22T09:44:55.617Z,13.51
2017-04-22T09:45:55.610Z,13.62
2017-04-22T09:46:55.605Z,13.64
2017-04-22T09:47:55.972Z,13.55
2017-04-22T09:48:55.598Z,13.54
2017-04-22T09:49:55.608Z,13.51
2017-04-22T09:50:55.285Z,13.45
2017-04-22T09:51:55.581Z,13.41
2017-04-22T09:52:55.878Z,13.32
2017-04-22T09:53:55.272Z,13.29
2017-04-22T09:54:55.566Z,13.26
2017-04-22T09:55:55.563Z,13.22
2017-04-22T09:56:54.950Z,13.15
2017-04-22T09:57:55.554Z,13.14
2017-04-22T09:58:55.548Z,13.2
2017-04-22T09:59:55.544Z,13.08
2017-04-22T10:00:55.537Z,13.1
2017-04-22T10:01:55.530Z,13.1
2017-04-22T10:02:55.778Z,13.04
2017-04-22T10:03:55.519Z,13
2017-04-22T10:04:55.519Z,12.97
2017-04-22T10:05:55.508Z,12.95
2017-04-22T10:06:55.506Z,12.97
2017-04-22T10:07:55.801Z,13.05
2017-04-22T10:08:55.495Z,13.05
2017-04-22T10:09:55.490Z,13
2017-04-22T10:10:55.483Z,13.19
2017-04-22T10:11:55.477Z,13.17
2017-04-22T10:12:55.775Z,13.23
2017-04-22T10:13:55.469Z,13.17
2017-04-22T10:14:55.465Z,13.14
2017-04-22T10:15:55.458Z,13.14
2017-04-22T10:16:55.147Z,13.25
2017-04-22T10:17:55.698Z,13.26
2017-04-22T10:18:55.549Z,13.22
2017-04-22T10:19:55.442Z,13.29
2017-04-22T10:20:55.430Z,13.3
2017-04-22T10:21:55.466Z,13.52
2017-04-22T10:22:55.673Z,13.62
2017-04-22T10:23:55.417Z,13.71
2017-04-22T10:24:55.413Z,13.85
2017-04-22T10:25:55.407Z,14.17
2017-04-22T10:26:55.401Z,14.27
2017-04-22T10:27:55.700Z,14.28
2017-04-22T10:28:55.458Z,14.43
2017-04-22T10:29:55.390Z,14.51
2017-04-22T10:30:55.384Z,14.64
2017-04-22T10:31:55.378Z,14.62
2017-04-22T10:32:55.681Z,14.58
2017-04-22T10:33:55.067Z,14.6
2017-04-22T10:34:55.068Z,14.6
2017-04-22T10:35:55.370Z,14.58
2017-04-22T10:36:55.370Z,14.62
2017-04-22T10:37:55.658Z,14.7
2017-04-22T10:38:55.357Z,14.84
2017-04-22T10:39:55.348Z,14.64
2017-04-22T10:40:55.343Z,14.61
2017-04-22T10:41:55.339Z,14.61
2017-04-22T10:42:55.643Z,14.64
2017-04-22T10:43:55.333Z,14.64
2017-04-22T10:44:55.329Z,14.7
2017-04-22T10:45:55.325Z,14.69
2017-04-22T10:46:55.317Z,14.64
2017-04-22T10:47:55.572Z,14.51
2017-04-22T10:48:55.311Z,14.46
2017-04-22T10:49:55.314Z,14.28
2017-04-22T10:50:54.999Z,14.2
2017-04-22T10:51:55.301Z,14.27
2017-04-22T10:52:55.596Z,14.36
2017-04-22T10:53:55.291Z,14.25
2017-04-22T10:54:55.292Z,14.37
2017-04-22T10:55:55.283Z,14.42
2017-04-22T10:56:55.278Z,14.43
2017-04-22T10:57:55.579Z,14.37
2017-04-22T10:58:55.278Z,14.39
2017-04-22T10:59:55.269Z,14.43
2017-04-22T11:00:55.265Z,14.39
2017-04-22T11:01:55.259Z,14.28
2017-04-22T11:02:55.506Z,14.21
2017-04-22T11:03:54.947Z,14.06
2017-04-22T11:04:55.247Z,13.92
2017-04-22T11:05:55.242Z,13.66
2017-04-22T11:06:54.936Z,13.59
2017-04-22T11:07:55.485Z,13.51
2017-04-22T11:08:55.229Z,13.48
2017-04-22T11:09:55.228Z,13.42
2017-04-22T11:10:55.222Z,13.28
2017-04-22T11:11:55.218Z,13.26
2017-04-22T11:12:55.515Z,13.15
2017-04-22T11:13:54.910Z,13.12
2017-04-22T11:14:55.202Z,13.17
2017-04-22T11:15:55.199Z,13.12
2017-04-22T11:16:55.195Z,13.14
2017-04-22T11:17:55.440Z,13.25
2017-04-22T11:18:55.186Z,13.26
2017-04-22T11:19:55.179Z,13.39
2017-04-22T11:20:55.179Z,13.41
2017-04-22T11:21:55.168Z,13.39
2017-04-22T11:22:55.416Z,13.41
2017-04-22T11:23:55.273Z,13.57
2017-04-22T11:24:55.166Z,13.52
2017-04-22T11:25:55.147Z,13.64
2017-04-22T11:26:55.143Z,13.64
2017-04-22T11:27:55.439Z,13.62
2017-04-22T11:28:55.137Z,13.66
2017-04-22T11:29:55.130Z,13.73
2017-04-22T11:30:55.124Z,13.77
2017-04-22T11:31:55.122Z,13.89
2017-04-22T11:32:55.376Z,13.85
2017-04-22T11:33:55.109Z,13.92
2017-04-22T11:34:55.108Z,13.89
2017-04-22T11:35:55.104Z,13.91
2017-04-22T11:36:55.097Z,13.75
2017-04-22T11:37:55.092Z,13.71
2017-04-22T11:38:55.091Z,13.6
2017-04-22T11:39:55.082Z,13.59
2017-04-22T11:40:55.077Z,13.42
2017-04-22T11:41:55.069Z,13.28
2017-04-22T11:42:55.065Z,13.19
2017-04-22T11:43:55.061Z,13.17
2017-04-22T11:44:55.055Z,13.08
2017-04-22T11:45:55.049Z,13.01
2017-04-22T11:46:55.049Z,13.05
2017-04-22T11:47:55.054Z,13.1
2017-04-22T11:48:55.034Z,13.05
2017-04-22T11:49:55.040Z,13.12
2017-04-22T11:50:55.026Z,13.19
2017-04-22T11:51:55.020Z,13.17
2017-04-22T11:52:55.055Z,13.28
2017-04-22T11:53:55.007Z,13.3
2017-04-22T11:54:55.004Z,13.41
2017-04-22T11:55:54.994Z,13.44
2017-04-22T11:56:54.687Z,13.59
2017-04-22T11:57:54.985Z,13.6
2017-04-22T11:58:54.979Z,13.77
2017-04-22T11:59:54.976Z,13.91
2017-04-22T12:00:54.965Z,13.92
2017-04-22T12:01:54.971Z,13.85
2017-04-22T12:02:54.958Z,14
2017-04-22T12:03:54.957Z,14.07
2017-04-22T12:04:54.946Z,14.04
2017-04-22T12:05:54.942Z,14.12
2017-04-22T12:06:54.935Z,14.24
2017-04-22T12:07:54.936Z,14.17
2017-04-22T12:08:54.926Z,14.35
2017-04-22T12:09:54.922Z,14.33
2017-04-22T12:10:54.918Z,14.46
2017-04-22T12:11:54.910Z,14.57
2017-04-22T12:12:54.910Z,14.69
2017-04-22T12:13:54.902Z,14.8
2017-04-22T12:14:54.898Z,14.92
2017-04-22T12:15:54.890Z,15.19
2017-04-22T12:16:54.886Z,15.29
2017-04-22T12:17:54.885Z,15.32
2017-04-22T12:18:55.370Z,15.35
2017-04-22T12:19:54.875Z,15.34
2017-04-22T12:20:54.870Z,15.31
2017-04-22T12:21:54.867Z,15.27
2017-04-22T12:22:54.869Z,15.19
2017-04-22T12:23:54.871Z,15.2
2017-04-22T12:24:54.853Z,15.2
2017-04-22T12:25:54.849Z,15.32
2017-04-22T12:26:54.907Z,15.31
2017-04-22T12:27:54.846Z,15.28
2017-04-22T12:28:54.838Z,15.23
2017-04-22T12:29:54.835Z,15.17
2017-04-22T12:30:54.832Z,15.21
2017-04-22T12:31:54.826Z,15.27
2017-04-22T12:32:54.829Z,15.38
2017-04-22T12:33:54.818Z,15.44
2017-04-22T12:34:54.816Z,15.56
2017-04-22T12:35:54.818Z,15.65
2017-04-22T12:36:54.809Z,15.75
2017-04-22T12:37:54.808Z,15.76
2017-04-22T12:38:54.804Z,15.89
2017-04-22T12:39:54.797Z,15.93
2017-04-22T12:40:54.500Z,16.07
2017-04-22T12:41:54.787Z,16.05
2017-04-22T12:42:54.787Z,16.09
2017-04-22T12:43:54.784Z,16.14
2017-04-22T12:44:54.780Z,15.96
2017-04-22T12:45:54.809Z,16.01
2017-04-22T12:46:54.775Z,16.01
2017-04-22T12:47:54.770Z,15.96
2017-04-22T12:48:54.769Z,16.08
2017-04-22T12:49:54.764Z,16.12
2017-04-22T12:50:54.759Z,16.17
2017-04-22T12:51:54.754Z,16.17
2017-04-22T12:52:54.752Z,16.24
2017-04-22T12:53:54.751Z,16.12
2017-04-22T12:54:54.746Z,16.07
2017-04-22T12:55:54.740Z,15.96
2017-04-22T12:56:54.739Z,16.04
2017-04-22T12:57:54.735Z,15.96
2017-04-22T12:58:54.733Z,16.08
2017-04-22T12:59:54.731Z,16.11
2017-04-22T13:00:54.726Z,16.17
2017-04-22T13:01:54.721Z,16.21
2017-04-22T13:02:54.722Z,16.33
2017-04-22T13:03:54.718Z,16.41
2017-04-22T13:04:54.713Z,16.39
2017-04-22T13:05:54.707Z,16.45
2017-04-22T13:06:54.705Z,16.43